Airfield :
LOGIN :

Register | Disclaimer

   EN    FR    IT 

 










Legend :    VFR   Marginal VFR   IFR   Intensive IFR   Very Intensive IFR
Visi :
Ceiling :
>= 8 km
>= 3000ft
5 to 8 km
1000 to 3000 ft
1500m to 5 km
500 to 1000 ft
800 to 1500m
200 to 500 ft
< 800m
< 200 ft
Symbols :   Thunderstorms  Fog  Heavy snow  Heavy precipitations  Wind > 20 kt
SIGMETs :     Misc.  Thunderstorms  Icing  Turbulence  Mountain Waves  Volcanic Ashes







- Airport Elevation : 327 ft
- IATA code : BHX
- Download approach charts


EGBB - Birmingham

CURRENT METAR :
  • 251320Z 19006KT 160V230 9999 VCSH FEW016 SCT023CB BKN038 12/08 Q0997

EXPIRED METARs :
  • 251250Z 13010KT 100V170 9999 VCSH FEW017 SCT035CB 13/09 Q0997
  • 251220Z 16011KT 9999 VCSH FEW015 SCT044CB 12/08 Q0996 RESHRA
  • 251150Z 15012KT 9999 VCSH FEW018 SCT030 10/08 Q0997 RESHRA
  • 251120Z 18008KT 5000 SHRA SCT016 SCT042CB 11/08 Q0996 RESHRA
  • 251050Z 21006KT 180V260 9999 VCSH SCT021 SCT030CB 10/06 Q0996

TAF TAF EGBB
Valid from the 25 at 12:00 until the 26 at 12:00 UTC


251105Z 2512/2612 20004KT 9999 SCT030
BECMG 2512/2515 20014KT
TEMPO 2512/2520 7000 SHRA
PROB30
TEMPO 2512/2519 21017G27KT 4000 +SHRA TSGS BKN014 BKN030CB
BECMG 2519/2522 19004KT
PROB30 2523/2608 5000 BR BKN008
BECMG 2607/2610 19014KT
PROB30
TEMPO 2610/2612 7000 SHRA BKN014
ATIS : +44 121 780 0910
No reported NOTAMs for that airfield.



MET'MAP, your aeronautical weather chart ! - Copyright ORBIFLY December 2007 - Disclaimer

ORBIFLY MET'MAP TEAM :

Programming & Development : Alexandra Zaïnal
Concept & Development : Baudouin d'Aumeries
Co-Development & Prog : Marc-Olivier Méhu
Technical & hardware support : Manuel Goepfert

Contact : metmap@orbifly.com




SOURCES & CREDITS :

   NOAA